createdAt,value
2022-10-24T00:00:17.047Z,100622.84
2022-10-24T00:04:18.507Z,100627.75
2022-10-24T00:08:19.883Z,100653.06
2022-10-24T00:16:28.142Z,100680.75
2022-10-24T00:20:29.676Z,100674.59
2022-10-24T00:24:31.103Z,100656.03
2022-10-24T00:28:34.671Z,100641.22
2022-10-24T00:32:36.128Z,100648.09
2022-10-24T00:36:37.555Z,100632.69
2022-10-24T00:40:39.354Z,100637.19
2022-10-24T00:44:42.051Z,100649.84
2022-10-24T00:48:54.803Z,100652.78
2022-10-24T00:52:56.397Z,100668.69
2022-10-24T00:57:27.381Z,100678.13
2022-10-24T01:01:28.926Z,100673.94
2022-10-24T01:05:40.038Z,100675.44
2022-10-24T01:09:58.854Z,100677.63
2022-10-24T01:14:15.540Z,100661.41
2022-10-24T01:18:42.120Z,100671.31
2022-10-24T01:23:08.705Z,100659.53
2022-10-24T01:27:33.519Z,100643.44
2022-10-24T01:31:48.699Z,100623.50
2022-10-24T01:35:56.679Z,100622.06
2022-10-24T01:40:06.452Z,100625.13
2022-10-24T01:44:20.965Z,100615.56
2022-10-24T01:48:25.411Z,100627.13
2022-10-24T01:52:31.248Z,100601.31
2022-10-24T01:56:33.138Z,100593.66
2022-10-24T02:00:35.285Z,100582.88
2022-10-24T02:04:43.521Z,100583.44
2022-10-24T02:08:54.851Z,100581.81
2022-10-24T02:13:01.929Z,100576.63
2022-10-24T02:17:04.203Z,100581.88
2022-10-24T02:21:36.467Z,100581.69
2022-10-24T02:25:47.225Z,100578.38
2022-10-24T02:30:03.328Z,100581.06
2022-10-24T02:34:07.921Z,100570.75
2022-10-24T02:38:18.301Z,100562.53
2022-10-24T02:42:21.284Z,100559.63
2022-10-24T02:46:24.839Z,100545.63
2022-10-24T02:50:27.052Z,100552.44
2022-10-24T02:54:28.468Z,100565.09
2022-10-24T02:58:29.848Z,100566.81
2022-10-24T03:02:31.204Z,100555.78
2022-10-24T03:06:32.613Z,100561.44
2022-10-24T03:10:34.076Z,100561.94
2022-10-24T03:14:35.489Z,100558.31
2022-10-24T03:18:36.893Z,100566.22
2022-10-24T03:22:38.249Z,100570.22
2022-10-24T03:26:39.651Z,100566.13
2022-10-24T03:30:41.036Z,100563.53
2022-10-24T03:34:42.483Z,100569.25
2022-10-24T03:38:44.187Z,100566.81
2022-10-24T03:42:45.767Z,100559.69
2022-10-24T03:46:47.462Z,100560.38
2022-10-24T03:50:48.822Z,100550.91
2022-10-24T03:54:52.701Z,100558.22
2022-10-24T03:58:54.081Z,100566.31
2022-10-24T04:02:56.008Z,100571.31
2022-10-24T04:06:58.523Z,100574.97
2022-10-24T04:11:00.035Z,100570.38
2022-10-24T04:15:04.750Z,100568.78
2022-10-24T04:19:06.611Z,100567.97
2022-10-24T04:23:07.962Z,100568.38
2022-10-24T04:27:09.929Z,100566.03
2022-10-24T04:31:11.340Z,100563.94
2022-10-24T04:35:14.203Z,100570.03
2022-10-24T04:39:15.760Z,100567.25
2022-10-24T04:43:17.241Z,100568.88
2022-10-24T04:51:25.110Z,100571.66
2022-10-24T04:55:26.602Z,100584.25
2022-10-24T04:59:28.141Z,100587.47
2022-10-24T05:03:29.668Z,100602.16
2022-10-24T05:07:31.048Z,100604.22
2022-10-24T05:11:32.917Z,100612.56
2022-10-24T05:15:34.324Z,100603.09
2022-10-24T05:19:36.324Z,100604.94
2022-10-24T05:23:37.697Z,100611.84
2022-10-24T05:27:39.248Z,100611.13
2022-10-24T05:31:40.920Z,100609.00
2022-10-24T05:35:42.333Z,100599.44
2022-10-24T05:39:43.752Z,100577.75
2022-10-24T05:43:45.158Z,100572.19
2022-10-24T05:47:46.979Z,100576.56
2022-10-24T05:51:48.557Z,100572.72
2022-10-24T05:55:49.931Z,100581.00
2022-10-24T05:59:51.544Z,100571.53
2022-10-24T06:03:53.004Z,100569.56
2022-10-24T06:07:54.388Z,100574.69
2022-10-24T06:11:55.741Z,100563.88
2022-10-24T06:15:57.212Z,100550.72
2022-10-24T06:19:58.592Z,100557.00
2022-10-24T06:23:59.962Z,100559.31
2022-10-24T06:28:01.934Z,100570.38
2022-10-24T06:32:03.833Z,100569.41
2022-10-24T06:36:09.330Z,100579.34
2022-10-24T06:40:11.501Z,100575.06
2022-10-24T06:44:12.979Z,100577.94
2022-10-24T06:48:14.437Z,100587.13
2022-10-24T06:52:15.786Z,100594.34
2022-10-24T06:56:18.172Z,100594.13
2022-10-24T07:00:19.616Z,100609.13
2022-10-24T07:04:21.030Z,100625.88
2022-10-24T07:08:22.490Z,100625.66
2022-10-24T07:12:24.535Z,100619.69
2022-10-24T07:16:26.318Z,100626.50
2022-10-24T07:20:27.775Z,100614.38
2022-10-24T07:24:29.187Z,100614.94
2022-10-24T07:28:30.594Z,100611.44
2022-10-24T07:32:32.019Z,100614.75
2022-10-24T07:36:33.735Z,100623.22
2022-10-24T07:40:35.369Z,100634.56
2022-10-24T07:44:36.790Z,100641.84
2022-10-24T07:48:39.057Z,100635.13
2022-10-24T07:52:40.468Z,100647.28
2022-10-24T07:56:41.870Z,100639.38
2022-10-24T08:00:45.432Z,100632.69
2022-10-24T08:04:47.156Z,100626.84
2022-10-24T08:08:49.041Z,100613.34
2022-10-24T08:12:50.447Z,100612.28
2022-10-24T08:16:51.818Z,100623.94
2022-10-24T08:20:58.631Z,100620.75
2022-10-24T08:25:01.393Z,100614.88
2022-10-24T08:29:04.415Z,100604.94
2022-10-24T08:33:05.945Z,100604.22
2022-10-24T08:37:07.331Z,100603.03
2022-10-24T08:41:15.859Z,100607.50
2022-10-24T08:45:23.643Z,100594.75
2022-10-24T08:49:40.830Z,100599.16
2022-10-24T08:53:42.281Z,100586.81
2022-10-24T08:57:49.357Z,100590.00
2022-10-24T09:02:00.536Z,100569.25
2022-10-24T09:06:16.827Z,100576.03
2022-10-24T09:10:35.927Z,100580.00
2022-10-24T09:14:40.669Z,100577.97
2022-10-24T09:18:44.742Z,100577.97
2022-10-24T09:22:46.313Z,100581.97
2022-10-24T09:26:48.043Z,100570.41
2022-10-24T09:30:50.661Z,100573.16
2022-10-24T09:34:53.730Z,100561.56
2022-10-24T09:38:55.151Z,100569.94
2022-10-24T09:43:02.405Z,100569.09
2022-10-24T09:47:06.579Z,100587.09
2022-10-24T09:51:08.341Z,100577.06
2022-10-24T09:55:22.331Z,100581.06
2022-10-24T09:59:31.852Z,100577.81
2022-10-24T10:03:35.209Z,100582.22
2022-10-24T10:07:37.876Z,100565.31
2022-10-24T10:11:40.842Z,100563.72
2022-10-24T10:16:02.509Z,100558.94
2022-10-24T10:20:04.314Z,100568.03
2022-10-24T10:24:25.056Z,100566.50
2022-10-24T10:28:26.442Z,100566.13
2022-10-24T10:32:38.455Z,100562.00
2022-10-24T10:37:30.254Z,100560.84
2022-10-24T10:41:44.686Z,100553.63
2022-10-24T10:46:04.667Z,100561.59
2022-10-24T10:50:32.496Z,100555.66
2022-10-24T10:55:02.444Z,100555.59
2022-10-24T10:59:18.320Z,100551.97
2022-10-24T11:03:43.298Z,100556.78
2022-10-24T11:07:56.301Z,100550.38
2022-10-24T11:12:07.453Z,100534.69
2022-10-24T11:16:15.517Z,100549.41
2022-10-24T11:20:40.226Z,100562.31
2022-10-24T11:24:49.040Z,100549.88
2022-10-24T11:29:23.844Z,100544.63
2022-10-24T11:33:34.660Z,100539.00
2022-10-24T11:37:41.150Z,100547.88
2022-10-24T11:41:52.121Z,100543.03
2022-10-24T11:46:01.575Z,100537.41
2022-10-24T11:50:17.485Z,100528.97
2022-10-24T11:54:42.755Z,100520.13
2022-10-24T11:58:58.928Z,100515.69
2022-10-24T12:03:18.796Z,100520.09
2022-10-24T12:07:39.054Z,100520.13
2022-10-24T12:12:08.419Z,100518.41
2022-10-24T12:16:47.502Z,100519.50
2022-10-24T12:21:00.429Z,100505.22
2022-10-24T12:25:14.793Z,100499.63
2022-10-24T12:29:24.040Z,100499.97
2022-10-24T12:33:27.509Z,100493.06
2022-10-24T12:37:28.906Z,100477.50
2022-10-24T12:41:33.312Z,100477.25
2022-10-24T12:45:34.746Z,100468.09
2022-10-24T12:49:36.172Z,100477.78
2022-10-24T12:54:02.094Z,100474.75
2022-10-24T12:58:24.473Z,100467.94
2022-10-24T13:02:31.862Z,100473.78
2022-10-24T13:06:45.439Z,100472.59
2022-10-24T13:11:01.668Z,100465.53
2022-10-24T13:15:24.864Z,100465.25
2022-10-24T13:19:27.335Z,100469.84
2022-10-24T13:23:29.327Z,100461.31
2022-10-24T13:27:31.826Z,100480.72
2022-10-24T13:31:33.169Z,100472.47
2022-10-24T13:35:35.463Z,100476.66
2022-10-24T13:39:49.388Z,100461.84
2022-10-24T13:43:54.205Z,100469.88
2022-10-24T13:48:01.397Z,100484.00
2022-10-24T13:52:25.956Z,100472.38
2022-10-24T13:56:30.862Z,100492.38
2022-10-24T14:00:46.456Z,100494.38
2022-10-24T14:04:49.622Z,100498.97
2022-10-24T14:09:05.427Z,100486.69
2022-10-24T14:13:16.421Z,100478.25
2022-10-24T14:17:26.883Z,100478.81
2022-10-24T14:21:28.631Z,100473.59
2022-10-24T14:25:35.179Z,100477.97
2022-10-24T14:29:36.643Z,100480.66
2022-10-24T14:33:48.023Z,100489.50
2022-10-24T14:37:51.691Z,100498.63
2022-10-24T14:41:54.048Z,100513.66
2022-10-24T14:46:29.328Z,100512.56
2022-10-24T14:50:45.070Z,100500.72
2022-10-24T14:54:59.678Z,100501.28
2022-10-24T14:59:04.272Z,100501.34
2022-10-24T15:03:06.323Z,100501.19
2022-10-24T15:07:22.974Z,100501.97
2022-10-24T15:11:28.219Z,100500.16
2022-10-24T15:15:34.261Z,100500.97
2022-10-24T15:19:39.078Z,100511.16
2022-10-24T15:23:58.743Z,100506.03
2022-10-24T15:28:01.606Z,100509.69
2022-10-24T15:32:06.181Z,100506.97
2022-10-24T15:36:17.247Z,100503.78
2022-10-24T15:40:29.290Z,100502.22
2022-10-24T15:44:31.183Z,100511.91
2022-10-24T15:48:32.747Z,100514.38
2022-10-24T15:52:34.673Z,100519.91
2022-10-24T15:56:36.078Z,100521.66
2022-10-24T16:00:37.630Z,100530.06
2022-10-24T16:04:40.290Z,100525.69
2022-10-24T16:08:41.711Z,100526.56
2022-10-24T16:12:43.557Z,100529.81
2022-10-24T16:16:45.482Z,100537.03
2022-10-24T16:20:47.360Z,100538.22
2022-10-24T16:24:48.853Z,100538.59
2022-10-24T16:28:50.283Z,100537.84
2022-10-24T16:32:51.784Z,100543.88
2022-10-24T16:36:56.078Z,100542.25
2022-10-24T16:40:58.236Z,100540.25
2022-10-24T16:44:59.741Z,100540.69
2022-10-24T16:49:01.211Z,100541.88
2022-10-24T16:53:06.753Z,100550.69
2022-10-24T16:57:08.157Z,100566.34
2022-10-24T17:01:12.574Z,100555.53
2022-10-24T17:05:15.290Z,100554.31
2022-10-24T17:09:16.707Z,100557.19
2022-10-24T17:13:18.089Z,100560.41
2022-10-24T17:17:19.487Z,100554.41
2022-10-24T17:21:27.786Z,100550.78
2022-10-24T17:25:29.560Z,100556.41
2022-10-24T17:29:33.377Z,100554.78
2022-10-24T17:33:37.154Z,100565.22
2022-10-24T17:37:52.352Z,100558.03
2022-10-24T17:41:54.528Z,100553.66
2022-10-24T17:45:57.602Z,100562.81
2022-10-24T17:49:58.995Z,100565.63
2022-10-24T17:54:00.377Z,100576.81
2022-10-24T17:58:01.960Z,100571.25
2022-10-24T18:02:03.726Z,100581.22
2022-10-24T18:06:07.334Z,100579.63
2022-10-24T18:10:09.387Z,100587.22
2022-10-24T18:14:10.790Z,100583.63
2022-10-24T18:18:12.230Z,100586.78
2022-10-24T18:22:13.645Z,100588.38
2022-10-24T18:26:17.995Z,100594.00
2022-10-24T18:30:19.817Z,100596.38
2022-10-24T18:34:21.271Z,100596.38
2022-10-24T18:38:22.690Z,100596.38
2022-10-24T18:42:29.971Z,100594.00
2022-10-24T18:46:31.775Z,100599.59
2022-10-24T18:50:33.365Z,100596.38
2022-10-24T18:54:51.257Z,100600.41
2022-10-24T18:58:57.176Z,100592.41
2022-10-24T19:03:19.330Z,100603.19
2022-10-24T19:07:20.937Z,100602.38
2022-10-24T19:11:24.296Z,100598.78
2022-10-24T19:15:25.947Z,100596.38
2022-10-24T19:19:34.331Z,100594.00
2022-10-24T19:23:37.131Z,100598.00
2022-10-24T19:27:38.801Z,100597.19
2022-10-24T19:31:40.322Z,100593.19
2022-10-24T19:35:46.824Z,100602.00
2022-10-24T19:39:48.417Z,100598.78
2022-10-24T19:43:52.995Z,100605.16
2022-10-24T19:47:55.266Z,100601.59
2022-10-24T19:51:57.641Z,100594.00
2022-10-24T19:56:04.614Z,100597.19
2022-10-24T20:00:06.537Z,100599.56
2022-10-24T20:04:07.990Z,100602.78
2022-10-24T20:08:09.363Z,100603.16
2022-10-24T20:12:10.749Z,100602.34
2022-10-24T20:16:13.333Z,100603.16
2022-10-24T20:20:14.745Z,100599.16
2022-10-24T20:24:16.246Z,100612.66
2022-10-24T20:28:17.624Z,100613.47
2022-10-24T20:32:19.035Z,100631.47
2022-10-24T20:36:23.476Z,100619.88
2022-10-24T20:40:25.091Z,100624.97
2022-10-24T20:44:31.879Z,100630.88
2022-10-24T20:48:34.495Z,100631.28
2022-10-24T20:52:35.911Z,100645.50
2022-10-24T20:56:42.036Z,100647.41
2022-10-24T21:00:44.019Z,100654.56
2022-10-24T21:04:45.403Z,100661.31
2022-10-24T21:08:48.677Z,100662.53
2022-10-24T21:12:50.673Z,100665.72
2022-10-24T21:16:52.737Z,100672.84
2022-10-24T21:20:56.637Z,100670.44
2022-10-24T21:24:58.042Z,100671.91
2022-10-24T21:29:08.928Z,100677.59
2022-10-24T21:33:23.611Z,100673.59
2022-10-24T21:37:25.028Z,100673.03
2022-10-24T21:41:27.871Z,100680.19
2022-10-24T21:45:31.137Z,100681.75
2022-10-24T21:49:32.787Z,100684.44
2022-10-24T21:53:42.401Z,100690.59
2022-10-24T21:57:43.743Z,100686.44
2022-10-24T22:01:46.684Z,100693.56
2022-10-24T22:05:56.262Z,100694.34
2022-10-24T22:09:57.615Z,100691.88
2022-10-24T22:13:59.510Z,100697.78
2022-10-24T22:18:00.883Z,100697.44
2022-10-24T22:22:02.243Z,100710.81
2022-10-24T22:26:04.594Z,100715.88
2022-10-24T22:30:06.691Z,100719.03
2022-10-24T22:34:08.247Z,100727.09
2022-10-24T22:38:09.874Z,100728.25
2022-10-24T22:42:14.707Z,100723.50
2022-10-24T22:46:51.583Z,100733.75
2022-10-24T22:50:55.208Z,100731.34
2022-10-24T22:54:56.873Z,100730.59
2022-10-24T22:58:59.070Z,100736.09
2022-10-24T23:03:27.979Z,100733.75
2022-10-24T23:07:41.566Z,100735.22
2022-10-24T23:11:43.187Z,100745.59
2022-10-24T23:15:44.688Z,100742.88
2022-10-24T23:19:46.830Z,100744.38
2022-10-24T23:23:48.453Z,100747.47
2022-10-24T23:27:58.712Z,100746.38
2022-10-24T23:32:01.473Z,100752.59
2022-10-24T23:36:03.116Z,100750.38
2022-10-24T23:40:29.301Z,100756.16
2022-10-24T23:44:31.031Z,100764.44
2022-10-24T23:48:50.091Z,100765.19
2022-10-24T23:53:12.426Z,100770.66
2022-10-24T23:57:17.235Z,100770.16
